Time;durP1;ratioP1;P1;durP2;ratioP2;P2;SDS_P1;SDS_P2;PMS_P1;PMS_P2;Temp;Humidity;BMP_temperature;BMP_pressure;BME280_temperature;BME280_humidity;BME280_pressure;Samples;Min_cycle;Max_cycle;Signal;HPM_P1;HPM_P2
2021/01/23 00:02:05;;;;;;;2.08;1.88;;;4.10;78.80;;;;;;5048049;28;20029;-66
2021/01/23 00:04:31;;;;;;;1.80;1.70;;;4.00;78.80;;;;;;5049012;28;20155;-67
2021/01/23 00:06:57;;;;;;;1.92;1.75;;;4.00;78.90;;;;;;5053268;28;20029;-66
2021/01/23 00:09:23;;;;;;;1.83;1.73;;;3.90;79.00;;;;;;5054971;28;20422;-67
2021/01/23 00:11:49;;;;;;;1.50;1.40;;;3.80;79.20;;;;;;5053293;28;20116;-66
2021/01/23 00:14:15;;;;;;;1.63;1.52;;;3.80;79.20;;;;;;5052915;28;20112;-66
2021/01/23 00:16:41;;;;;;;1.13;1.10;;;3.80;79.20;;;;;;5052326;28;20113;-66
2021/01/23 00:19:07;;;;;;;1.20;1.10;;;3.70;79.40;;;;;;5054782;28;20029;-66
2021/01/23 00:21:32;;;;;;;1.52;1.10;;;3.60;79.10;;;;;;5042879;28;20025;-65
2021/01/23 00:23:58;;;;;;;1.00;1.00;;;3.60;79.20;;;;;;5044350;28;20028;-67
2021/01/23 00:26:23;;;;;;;1.65;0.80;;;3.60;79.40;;;;;;5053165;28;20028;-66
2021/01/23 00:28:49;;;;;;;0.60;0.60;;;3.50;79.30;;;;;;5060402;28;20033;-66
2021/01/23 00:31:15;;;;;;;0.60;0.60;;;3.30;79.30;;;;;;5051493;28;20017;-65
2021/01/23 00:33:40;;;;;;;0.52;0.52;;;3.30;79.70;;;;;;5053829;28;20037;-67
2021/01/23 00:36:06;;;;;;;0.50;0.50;;;3.30;79.90;;;;;;5053488;28;20032;-66
2021/01/23 00:38:32;;;;;;;0.50;0.50;;;3.30;79.90;;;;;;5053749;28;20082;-67
2021/01/23 00:40:58;;;;;;;0.50;0.50;;;3.30;79.80;;;;;;5052598;28;20381;-66
2021/01/23 00:43:23;;;;;;;0.40;0.40;;;3.30;79.90;;;;;;5053224;28;20044;-66
2021/01/23 00:45:49;;;;;;;0.40;0.40;;;3.20;79.80;;;;;;5052524;28;20039;-64
2021/01/23 00:48:15;;;;;;;0.30;0.30;;;3.10;80.10;;;;;;5053202;28;20040;-66
2021/01/23 00:50:40;;;;;;;0.40;0.40;;;3.10;80.10;;;;;;5052834;28;20033;-67
2021/01/23 00:53:06;;;;;;;0.30;0.30;;;3.00;80.20;;;;;;5046421;28;20470;-66
2021/01/23 00:55:31;;;;;;;0.30;0.30;;;3.00;80.60;;;;;;5052516;28;20032;-65
2021/01/23 00:57:57;;;;;;;0.35;0.35;;;2.90;80.80;;;;;;5053067;28;20028;-66
2021/01/23 01:00:23;;;;;;;0.30;0.30;;;2.80;80.70;;;;;;5052638;28;20136;-67
2021/01/23 01:02:49;;;;;;;0.30;0.30;;;2.80;81.10;;;;;;5052415;28;20075;-66
2021/01/23 01:05:15;;;;;;;0.30;0.30;;;2.80;81.40;;;;;;5052380;28;20029;-66
2021/01/23 01:07:40;;;;;;;0.40;0.40;;;2.70;81.10;;;;;;5052911;28;20111;-66
2021/01/23 01:10:07;;;;;;;0.40;0.40;;;2.70;81.30;;;;;;5051735;28;20059;-65
2021/01/23 01:12:32;;;;;;;0.40;0.40;;;2.70;81.40;;;;;;5063514;28;20025;-66
2021/01/23 01:14:58;;;;;;;0.38;0.38;;;2.70;81.50;;;;;;5051832;28;20029;-65
2021/01/23 01:17:23;;;;;;;0.30;0.30;;;2.70;81.50;;;;;;5050867;28;20167;-67
2021/01/23 01:19:49;;;;;;;0.40;0.40;;;2.70;81.50;;;;;;5047601;28;20063;-65
2021/01/23 01:22:15;;;;;;;0.40;0.40;;;2.70;81.40;;;;;;5046523;28;20518;-67
2021/01/23 01:24:40;;;;;;;0.40;0.40;;;2.80;81.50;;;;;;5033180;28;20022;-66
2021/01/23 01:27:06;;;;;;;0.40;0.40;;;2.70;81.50;;;;;;5039504;28;20025;-66
2021/01/23 01:29:31;;;;;;;0.40;0.40;;;2.70;81.50;;;;;;5052214;28;20158;-67
2021/01/23 01:31:57;;;;;;;0.57;0.57;;;2.70;81.50;;;;;;5052134;28;20473;-66
2021/01/23 01:34:22;;;;;;;0.40;0.40;;;2.70;81.70;;;;;;5051840;28;20112;-64
2021/01/23 01:36:48;;;;;;;0.40;0.40;;;2.70;81.50;;;;;;5051917;28;20370;-66
2021/01/23 01:39:14;;;;;;;0.40;0.40;;;2.70;81.70;;;;;;5052019;28;20037;-66
2021/01/23 01:41:40;;;;;;;0.50;0.50;;;2.70;81.70;;;;;;5051282;28;20021;-65
2021/01/23 01:44:06;;;;;;;0.45;0.45;;;2.60;81.60;;;;;;5050673;28;20025;-65
2021/01/23 01:46:33;;;;;;;0.50;0.50;;;2.60;81.80;;;;;;5051634;28;20437;-65
2021/01/23 01:49:01;;;;;;;0.60;0.60;;;2.50;82.10;;;;;;5052258;28;20029;-66
2021/01/23 01:51:27;;;;;;;0.70;0.70;;;2.50;82.10;;;;;;5051538;28;20633;-65
2021/01/23 01:53:54;;;;;;;0.82;0.82;;;2.50;82.30;;;;;;5044477;28;20025;-66
2021/01/23 01:56:20;;;;;;;0.52;0.52;;;2.50;82.40;;;;;;5052528;28;20556;-66
2021/01/23 01:58:45;;;;;;;0.73;0.73;;;2.50;82.40;;;;;;5051995;28;20028;-66
2021/01/23 02:01:11;;;;;;;0.70;0.70;;;2.50;82.60;;;;;;5051221;28;20032;-65
2021/01/23 02:03:55;;;;;;;0.70;0.70;;;2.50;82.50;;;;;;5051258;28;20539;-66
2021/01/23 02:06:53;;;;;;;0.60;0.60;;;2.50;82.70;;;;;;5049224;28;20025;-66
2021/01/23 02:09:43;;;;;;;0.70;0.70;;;2.40;82.60;;;;;;5052003;28;20060;-65
2021/01/23 02:12:36;;;;;;;0.80;0.80;;;2.40;82.50;;;;;;5051695;28;20033;-66
2021/01/23 02:15:10;;;;;;;0.90;0.90;;;2.40;82.70;;;;;;5048661;28;20068;-66
2021/01/23 02:18:03;;;;;;;3.30;0.88;;;2.30;82.90;;;;;;5051778;28;20025;-65
2021/01/23 02:20:48;;;;;;;0.80;0.80;;;2.30;83.10;;;;;;5044112;28;20021;-65
2021/01/23 02:23:21;;;;;;;1.45;1.00;;;2.30;83.10;;;;;;5044022;28;20776;-66
2021/01/23 02:26:22;;;;;;;1.05;0.95;;;2.30;83.10;;;;;;5032195;28;20550;-65
2021/01/23 02:29:08;;;;;;;1.20;1.10;;;2.30;83.30;;;;;;5043746;28;20037;-65
2021/01/23 02:31:37;;;;;;;1.40;1.30;;;2.40;83.20;;;;;;5051371;28;20041;-66
2021/01/23 02:34:05;;;;;;;0.95;0.95;;;2.40;83.10;;;;;;5051087;28;20067;-65
2021/01/23 02:36:34;;;;;;;1.42;1.02;;;2.40;82.90;;;;;;5051425;28;20028;-66
2021/01/23 02:39:01;;;;;;;1.70;1.13;;;2.40;83.20;;;;;;5049747;28;20021;-66
2021/01/23 02:41:28;;;;;;;1.30;1.10;;;2.50;83.10;;;;;;5050487;28;20112;-66
2021/01/23 02:43:53;;;;;;;1.05;1.02;;;2.50;83.00;;;;;;5050351;28;20080;-66
2021/01/23 02:46:19;;;;;;;1.52;1.20;;;2.40;83.10;;;;;;5050872;28;20059;-67
2021/01/23 02:48:46;;;;;;;1.25;1.13;;;2.40;83.30;;;;;;5051136;28;20028;-66
2021/01/23 02:51:25;;;;;;;1.42;1.10;;;2.40;83.30;;;;;;5047592;28;20020;-66
2021/01/23 02:53:55;;;;;;;1.10;0.82;;;2.40;83.80;;;;;;5048759;28;20033;-66
2021/01/23 02:56:24;;;;;;;1.30;1.20;;;2.40;83.60;;;;;;5050943;28;20071;-66
2021/01/23 02:58:52;;;;;;;1.15;1.05;;;2.40;83.70;;;;;;5051059;28;20017;-66
2021/01/23 03:01:21;;;;;;;1.00;1.00;;;2.30;83.70;;;;;;5050888;28;20029;-66
2021/01/23 03:03:49;;;;;;;1.50;1.17;;;2.40;83.90;;;;;;5051025;28;20104;-66
2021/01/23 03:06:15;;;;;;;1.00;1.00;;;2.40;83.90;;;;;;5051032;28;20095;-65
2021/01/23 03:08:44;;;;;;;1.42;1.33;;;2.40;83.70;;;;;;5047462;28;20485;-65
2021/01/23 03:11:10;;;;;;;2.40;1.20;;;2.40;83.90;;;;;;5050397;28;20021;-66
2021/01/23 03:13:36;;;;;;;1.23;1.13;;;2.50;83.70;;;;;;5049839;28;20032;-66
2021/01/23 03:16:02;;;;;;;1.70;1.60;;;2.40;83.60;;;;;;5059179;28;20033;-65
2021/01/23 03:18:27;;;;;;;1.30;1.20;;;2.50;83.90;;;;;;5050027;28;20019;-66
2021/01/23 03:20:53;;;;;;;1.27;1.17;;;2.40;83.70;;;;;;5060251;28;20092;-65
2021/01/23 03:23:19;;;;;;;1.27;1.17;;;2.40;84.00;;;;;;5050663;28;20032;-65
2021/01/23 03:25:44;;;;;;;3.42;1.35;;;2.40;84.60;;;;;;5049215;28;20029;-66
2021/01/23 03:28:10;;;;;;;1.88;1.45;;;2.40;83.90;;;;;;5048996;28;20036;-65
2021/01/23 03:30:35;;;;;;;1.40;1.30;;;2.40;84.20;;;;;;5049490;28;20083;-66
2021/01/23 03:33:01;;;;;;;1.33;1.23;;;2.40;84.10;;;;;;5048835;28;20374;-65
2021/01/23 03:35:26;;;;;;;1.13;1.00;;;2.40;84.10;;;;;;5049615;28;20047;-66
2021/01/23 03:37:52;;;;;;;2.05;1.20;;;2.40;84.10;;;;;;5048034;28;20045;-65
2021/01/23 03:40:18;;;;;;;1.10;1.00;;;2.40;84.20;;;;;;5047069;28;20173;-66
2021/01/23 03:42:44;;;;;;;1.45;1.10;;;2.40;84.30;;;;;;5048623;28;20532;-65
2021/01/23 03:45:10;;;;;;;1.13;1.00;;;2.40;84.30;;;;;;5048444;28;20092;-66
2021/01/23 03:47:37;;;;;;;0.90;0.90;;;2.40;84.40;;;;;;5048762;28;20036;-65
2021/01/23 03:50:07;;;;;;;0.80;0.80;;;2.40;84.70;;;;;;5044411;28;20031;-66
2021/01/23 03:52:33;;;;;;;0.75;0.75;;;2.30;84.60;;;;;;5042520;28;20033;-66
2021/01/23 03:54:58;;;;;;;1.00;1.00;;;2.30;84.90;;;;;;5048474;28;20070;-65
2021/01/23 03:57:24;;;;;;;0.70;0.70;;;2.30;84.80;;;;;;5048066;28;20521;-66
2021/01/23 03:59:49;;;;;;;0.80;0.80;;;2.20;85.00;;;;;;5050275;28;20362;-66
2021/01/23 04:02:15;;;;;;;1.13;1.08;;;2.30;85.10;;;;;;5094409;22;20047;-68
2021/01/23 04:04:40;;;;;;;1.08;1.08;;;2.30;85.10;;;;;;5088282;28;20024;-68
2021/01/23 04:07:06;;;;;;;1.10;1.02;;;2.30;85.10;;;;;;5078724;28;20043;-68
2021/01/23 04:09:31;;;;;;;1.58;1.48;;;2.30;85.00;;;;;;5083972;28;20055;-68
2021/01/23 04:11:57;;;;;;;1.20;1.10;;;2.40;85.20;;;;;;5073825;28;20032;-68
2021/01/23 04:14:22;;;;;;;1.23;1.17;;;2.30;84.80;;;;;;5070144;28;20392;-68
2021/01/23 04:16:48;;;;;;;1.38;1.27;;;2.40;85.00;;;;;;5077737;28;20347;-68
2021/01/23 04:19:16;;;;;;;1.30;1.20;;;2.40;85.10;;;;;;5096472;28;20032;-68
2021/01/23 04:21:41;;;;;;;1.75;1.40;;;2.40;84.80;;;;;;5088460;28;20116;-68
2021/01/23 04:24:08;;;;;;;2.10;1.90;;;2.40;84.80;;;;;;5087243;28;20103;-68
2021/01/23 04:26:34;;;;;;;2.58;1.95;;;2.50;85.00;;;;;;5086207;28;20031;-67
2021/01/23 04:28:59;;;;;;;3.28;2.28;;;2.40;84.80;;;;;;5087547;28;20078;-68
2021/01/23 04:31:25;;;;;;;4.32;2.80;;;2.40;85.00;;;;;;5085186;28;20105;-68
2021/01/23 04:33:50;;;;;;;6.20;3.40;;;2.40;84.80;;;;;;5089569;28;20063;-68
2021/01/23 04:36:16;;;;;;;6.50;4.10;;;2.40;84.90;;;;;;5080372;28;20020;-68
2021/01/23 04:38:41;;;;;;;6.70;4.15;;;2.40;85.20;;;;;;5088419;28;20500;-68
2021/01/23 04:41:07;;;;;;;6.70;4.20;;;2.40;85.00;;;;;;5079933;28;20059;-67
2021/01/23 04:43:32;;;;;;;8.13;4.70;;;2.40;85.20;;;;;;5078327;28;20033;-68
2021/01/23 04:45:58;;;;;;;10.13;5.20;;;2.40;85.10;;;;;;5081082;28;20028;-67
2021/01/23 04:48:24;;;;;;;11.98;6.40;;;2.40;85.20;;;;;;5077623;28;20016;-68
2021/01/23 04:50:49;;;;;;;11.80;5.70;;;2.40;85.40;;;;;;5081560;28;20594;-68
2021/01/23 04:53:15;;;;;;;11.18;6.25;;;2.30;85.20;;;;;;5081522;28;20404;-69
2021/01/23 04:55:44;;;;;;;10.75;6.20;;;2.30;85.60;;;;;;5077220;28;20025;-68
2021/01/23 04:58:09;;;;;;;12.52;5.80;;;2.30;85.70;;;;;;5074535;28;20107;-68
2021/01/23 05:00:35;;;;;;;13.15;6.78;;;2.30;85.70;;;;;;5085025;28;20090;-68
2021/01/23 05:03:03;;;;;;;12.15;6.65;;;2.30;85.70;;;;;;5082595;28;20033;-68
2021/01/23 05:05:29;;;;;;;15.02;7.47;;;2.30;85.80;;;;;;5078961;28;20028;-68
2021/01/23 05:08:09;;;;;;;13.57;7.05;;;2.30;85.80;;;;;;5077046;28;20028;-68
2021/01/23 05:10:35;;;;;;;11.05;6.60;;;2.30;85.80;;;;;;5083570;28;20112;-67
2021/01/23 05:13:02;;;;;;;13.88;7.50;;;2.30;85.60;;;;;;5075490;28;20348;-67
2021/01/23 05:15:29;;;;;;;12.85;6.80;;;2.30;85.70;;;;;;5089083;28;20028;-68
2021/01/23 05:18:08;;;;;;;11.30;6.22;;;2.30;85.70;;;;;;5079030;28;20025;-67
2021/01/23 05:20:41;;;;;;;13.60;7.10;;;2.40;85.80;;;;;;5089170;28;20074;-68
2021/01/23 05:23:17;;;;;;;11.27;6.57;;;2.40;85.70;;;;;;5070982;28;20425;-68
2021/01/23 05:25:44;;;;;;;13.00;6.85;;;2.40;85.70;;;;;;5089238;28;20031;-68
2021/01/23 05:28:11;;;;;;;14.25;6.93;;;2.40;85.70;;;;;;5073733;28;20115;-68
2021/01/23 05:30:52;;;;;;;14.15;6.80;;;2.40;85.70;;;;;;5081440;28;20088;-67
2021/01/23 05:33:23;;;;;;;13.18;6.63;;;2.40;85.60;;;;;;5088136;28;20029;-68
2021/01/23 05:36:09;;;;;;;12.82;7.05;;;2.50;85.60;;;;;;5089087;28;20036;-67
2021/01/23 05:38:42;;;;;;;13.07;6.85;;;2.50;85.60;;;;;;5085954;28;20447;-67
2021/01/23 05:41:08;;;;;;;12.93;6.63;;;2.50;85.40;;;;;;5083420;28;20017;-68
2021/01/23 05:43:33;;;;;;;14.07;6.95;;;2.50;85.50;;;;;;5091316;28;20058;-68
2021/01/23 05:46:02;;;;;;;15.15;7.30;;;2.50;85.60;;;;;;5090334;28;20028;-68
2021/01/23 05:48:28;;;;;;;13.00;7.57;;;2.50;85.60;;;;;;5079947;28;20081;-68
2021/01/23 05:50:54;;;;;;;14.95;7.57;;;2.50;85.70;;;;;;5091320;28;20024;-67
2021/01/23 05:53:19;;;;;;;10.98;6.55;;;2.50;85.70;;;;;;5083295;28;20032;-68
2021/01/23 05:55:45;;;;;;;11.93;6.38;;;2.40;85.80;;;;;;5092909;28;20082;-68
2021/01/23 05:58:11;;;;;;;10.60;6.28;;;2.40;85.80;;;;;;5085326;28;20487;-68
2021/01/23 06:00:38;;;;;;;11.95;6.28;;;2.50;85.80;;;;;;5084275;28;20025;-68
2021/01/23 06:03:04;;;;;;;10.27;5.60;;;2.50;85.80;;;;;;5086145;28;20024;-67
2021/01/23 06:05:29;;;;;;;11.60;6.55;;;2.60;85.70;;;;;;5091721;28;20027;-67
2021/01/23 06:07:55;;;;;;;10.48;6.82;;;2.60;85.70;;;;;;5091980;28;20111;-68
2021/01/23 06:10:24;;;;;;;10.98;7.00;;;2.60;85.60;;;;;;5092570;28;20031;-68
2021/01/23 06:12:50;;;;;;;9.90;6.28;;;2.60;85.40;;;;;;5071754;28;20568;-68
2021/01/23 06:15:31;;;;;;;12.23;7.50;;;2.60;85.50;;;;;;5079682;28;20115;-68
2021/01/23 06:17:57;;;;;;;21.15;10.38;;;2.60;85.50;;;;;;5079245;28;20488;-68
2021/01/23 06:20:41;;;;;;;17.65;7.78;;;2.60;85.40;;;;;;5068833;28;20028;-68
2021/01/23 06:23:12;;;;;;;13.80;7.70;;;2.60;85.50;;;;;;5068308;28;20016;-67
2021/01/23 06:25:50;;;;;;;15.43;8.13;;;2.60;85.40;;;;;;5067298;28;20747;-68
2021/01/23 06:28:15;;;;;;;15.40;8.30;;;2.60;85.40;;;;;;5074896;28;20031;-68
2021/01/23 06:30:41;;;;;;;11.63;7.18;;;2.70;85.50;;;;;;5067779;28;20033;-67
2021/01/23 06:33:22;;;;;;;13.05;7.00;;;2.70;85.40;;;;;;5081009;28;20416;-68
2021/01/23 06:36:06;;;;;;;14.60;7.22;;;2.70;85.60;;;;;;5079357;28;20031;-68
2021/01/23 06:38:35;;;;;;;15.35;7.88;;;2.70;85.60;;;;;;5074803;28;20032;-68
2021/01/23 06:41:25;;;;;;;18.20;8.27;;;2.70;85.40;;;;;;5076293;28;20029;-68
2021/01/23 06:44:06;;;;;;;13.90;8.18;;;2.80;85.50;;;;;;5064344;28;20020;-67
2021/01/23 06:46:40;;;;;;;17.05;8.05;;;2.80;85.40;;;;;;5076119;28;20017;-67
2021/01/23 06:49:07;;;;;;;13.13;7.68;;;2.80;85.30;;;;;;5075633;28;20353;-67
2021/01/23 06:51:33;;;;;;;14.50;8.13;;;2.80;85.00;;;;;;5076646;28;20039;-67
2021/01/23 06:54:21;;;;;;;17.88;8.40;;;2.80;85.00;;;;;;5090509;28;20028;-67
2021/01/23 06:56:52;;;;;;;14.98;7.93;;;2.70;85.20;;;;;;5087382;28;20040;-68
2021/01/23 06:59:26;;;;;;;12.25;7.15;;;2.80;85.30;;;;;;5089345;28;20552;-68
2021/01/23 07:01:55;;;;;;;11.82;7.47;;;2.70;85.10;;;;;;5081147;28;20028;-68
2021/01/23 07:04:21;;;;;;;15.82;8.23;;;2.70;85.10;;;;;;5060277;28;20032;-68
2021/01/23 07:06:46;;;;;;;17.27;8.60;;;2.70;85.10;;;;;;5084460;28;20020;-73
2021/01/23 07:09:12;;;;;;;14.77;8.60;;;2.80;85.30;;;;;;5083077;28;20095;-73
2021/01/23 07:11:39;;;;;;;13.32;7.25;;;2.80;85.30;;;;;;5081303;28;20029;-73
2021/01/23 07:14:08;;;;;;;16.08;8.32;;;2.80;85.10;;;;;;5088027;28;20488;-68
2021/01/23 07:16:38;;;;;;;19.83;9.35;;;2.80;84.90;;;;;;5091089;28;20551;-67
2021/01/23 07:19:08;;;;;;;19.48;9.35;;;2.80;85.20;;;;;;5076358;28;20028;-68
2021/01/23 07:21:36;;;;;;;14.65;8.75;;;2.90;85.20;;;;;;5084214;28;20391;-67
2021/01/23 07:24:02;;;;;;;15.23;9.27;;;2.90;85.00;;;;;;5079467;28;20346;-68
2021/01/23 07:26:28;;;;;;;20.90;10.63;;;2.90;84.90;;;;;;5079909;28;20028;-68
2021/01/23 07:28:55;;;;;;;19.80;10.38;;;3.00;85.00;;;;;;5083430;28;20491;-69
2021/01/23 07:31:30;;;;;;;21.10;10.75;;;3.00;84.80;;;;;;5076076;28;20052;-68
2021/01/23 07:33:58;;;;;;;23.45;11.25;;;3.00;84.90;;;;;;5055235;28;20055;-69
2021/01/23 07:36:35;;;;;;;23.45;9.82;;;3.00;84.80;;;;;;5072812;28;20029;-69
2021/01/23 07:39:05;;;;;;;17.02;10.23;;;3.00;84.90;;;;;;5054945;28;20028;-68
2021/01/23 07:41:32;;;;;;;20.70;11.35;;;3.00;85.00;;;;;;5081869;28;20029;-70
2021/01/23 07:43:59;;;;;;;19.95;11.00;;;3.10;84.90;;;;;;5084263;28;20043;-69
2021/01/23 07:46:31;;;;;;;19.27;10.52;;;3.10;84.70;;;;;;5084729;28;20032;-69
2021/01/23 07:48:57;;;;;;;20.45;11.32;;;3.10;84.60;;;;;;5070619;28;20029;-69
2021/01/23 07:51:27;;;;;;;22.20;11.07;;;3.20;84.70;;;;;;5080096;28;20094;-69
2021/01/23 07:54:09;;;;;;;18.85;10.18;;;3.30;84.60;;;;;;5072907;28;20365;-69
2021/01/23 07:56:36;;;;;;;;;;;3.30;84.60;;;;;;5090570;28;20058;-69
2021/01/23 07:59:02;;;;;;;16.30;8.93;;;3.30;84.30;;;;;;5087439;28;19955;-69
2021/01/23 08:01:28;;;;;;;16.25;8.45;;;3.30;84.20;;;;;;5079796;28;20063;-69
2021/01/23 08:03:53;;;;;;;19.77;9.95;;;3.30;84.20;;;;;;5072909;28;20055;-68
2021/01/23 08:06:20;;;;;;;17.25;10.00;;;3.30;84.20;;;;;;5090656;28;20028;-68
2021/01/23 08:08:47;;;;;;;22.88;11.57;;;3.30;84.50;;;;;;5076466;28;20036;-68
2021/01/23 08:11:36;;;;;;;21.75;11.70;;;3.30;84.40;;;;;;5053265;28;20024;-68
2021/01/23 08:14:27;;;;;;;18.75;11.25;;;3.40;84.50;;;;;;5076487;28;20043;-69
2021/01/23 08:16:54;;;;;;;19.60;10.20;;;3.40;84.40;;;;;;5082290;28;20040;-68
2021/01/23 08:19:20;;;;;;;35.92;18.77;;;3.50;84.40;;;;;;5089665;28;20024;-69
2021/01/23 08:22:06;;;;;;;17.80;9.88;;;3.50;84.40;;;;;;5088516;28;20070;-68
2021/01/23 08:24:32;;;;;;;20.20;10.02;;;3.60;84.40;;;;;;5086181;28;20027;-69
2021/01/23 08:27:14;;;;;;;16.88;9.80;;;3.60;84.00;;;;;;5089622;28;20400;-69
2021/01/23 08:29:41;;;;;;;;;;;3.60;84.00;;;;;;5091642;28;20504;-68
2021/01/23 08:32:07;;;;;;;30.10;15.73;;;3.60;83.50;;;;;;5074476;28;19908;-69
2021/01/23 08:34:33;;;;;;;19.15;9.52;;;3.60;83.60;;;;;;5084188;28;20024;-69
2021/01/23 08:36:58;;;;;;;26.77;17.52;;;3.50;83.60;;;;;;5089276;28;20391;-69
2021/01/23 08:39:24;;;;;;;21.42;11.57;;;3.50;83.80;;;;;;5087783;28;20099;-68
2021/01/23 08:41:50;;;;;;;32.20;17.90;;;3.50;84.10;;;;;;5089296;28;20042;-69
2021/01/23 08:44:15;;;;;;;25.58;15.90;;;3.40;84.30;;;;;;5088038;28;20028;-68
2021/01/23 08:46:41;;;;;;;20.58;11.52;;;3.40;84.30;;;;;;5089661;28;20040;-69
2021/01/23 08:49:06;;;;;;;21.05;11.55;;;3.40;84.30;;;;;;5093313;28;20038;-68
2021/01/23 08:51:33;;;;;;;17.75;10.60;;;3.40;84.40;;;;;;5087115;28;20028;-69
2021/01/23 08:53:59;;;;;;;17.70;8.85;;;3.50;84.50;;;;;;5083157;28;20031;-68
2021/01/23 08:56:24;;;;;;;18.27;9.38;;;3.50;84.30;;;;;;5081295;28;20415;-68
2021/01/23 08:58:50;;;;;;;15.77;9.32;;;3.50;84.20;;;;;;5082007;28;20032;-69
2021/01/23 09:01:16;;;;;;;17.23;10.07;;;3.60;84.10;;;;;;5084504;28;20077;-69
2021/01/23 09:03:41;;;;;;;15.77;9.50;;;3.60;84.10;;;;;;5090464;28;20090;-69
2021/01/23 09:06:07;;;;;;;19.38;10.10;;;3.60;84.00;;;;;;5073431;28;20029;-69
2021/01/23 09:08:33;;;;;;;26.15;13.57;;;3.60;84.00;;;;;;5081505;28;20016;-69
2021/01/23 09:10:59;;;;;;;18.20;11.85;;;3.60;84.00;;;;;;5074998;28;20085;-69
2021/01/23 09:13:24;;;;;;;16.73;10.50;;;3.70;83.90;;;;;;5092967;28;20027;-69
2021/01/23 09:15:50;;;;;;;19.98;11.73;;;3.70;83.70;;;;;;5088059;28;20051;-68
2021/01/23 09:18:15;;;;;;;21.60;11.70;;;3.70;83.70;;;;;;5074878;28;20031;-69
2021/01/23 09:20:41;;;;;;;15.88;9.68;;;3.80;83.70;;;;;;5079958;28;20430;-69
2021/01/23 09:23:06;;;;;;;13.25;8.48;;;3.70;83.60;;;;;;5082532;28;20028;-68
2021/01/23 09:25:32;;;;;;;11.95;8.20;;;3.70;83.50;;;;;;5091583;28;20511;-68
2021/01/23 09:27:58;;;;;;;12.98;8.57;;;3.80;83.60;;;;;;5091699;28;20035;-68
2021/01/23 09:30:23;;;;;;;14.18;8.93;;;3.80;83.50;;;;;;5083523;28;20052;-69
2021/01/23 09:32:49;;;;;;;11.60;7.30;;;3.80;83.30;;;;;;5083475;28;20066;-68
2021/01/23 09:35:15;;;;;;;11.73;7.50;;;3.90;83.30;;;;;;5090025;28;20064;-67
2021/01/23 09:37:40;;;;;;;11.30;7.50;;;3.80;83.30;;;;;;5087013;28;20043;-68
2021/01/23 09:40:07;;;;;;;10.48;7.32;;;3.90;83.30;;;;;;5088740;28;20020;-69
2021/01/23 09:42:32;;;;;;;10.32;7.32;;;3.90;83.20;;;;;;5089431;28;20150;-69
2021/01/23 09:44:58;;;;;;;9.88;6.93;;;3.90;83.10;;;;;;5079160;28;20115;-69
2021/01/23 09:47:24;;;;;;;12.00;7.45;;;4.00;83.10;;;;;;5068445;28;20036;-69
2021/01/23 09:49:50;;;;;;;12.25;6.75;;;4.00;83.00;;;;;;5086191;28;20036;-69
2021/01/23 09:52:15;;;;;;;9.77;6.70;;;4.00;83.30;;;;;;5086232;28;20399;-69
2021/01/23 09:54:41;;;;;;;12.18;7.25;;;4.00;82.90;;;;;;5082187;28;20040;-67
2021/01/23 09:57:07;;;;;;;9.65;6.90;;;4.00;82.90;;;;;;5087834;28;20102;-68
2021/01/23 09:59:33;;;;;;;23.90;12.85;;;4.00;82.80;;;;;;5086330;28;20102;-68
2021/01/23 10:01:59;;;;;;;14.00;7.75;;;4.10;83.00;;;;;;5087891;22;20379;-86
2021/01/23 10:04:26;;;;;;;15.63;7.30;;;4.10;82.90;;;;;;5035226;28;20029;-86
2021/01/23 10:06:52;;;;;;;10.70;7.05;;;4.10;82.80;;;;;;5034437;28;20501;-86
2021/01/23 10:09:17;;;;;;;9.88;6.55;;;4.20;82.70;;;;;;5047058;28;20029;-84
2021/01/23 10:11:44;;;;;;;10.93;6.95;;;4.20;82.80;;;;;;5058736;28;20032;-84
2021/01/23 10:14:09;;;;;;;8.48;6.22;;;4.20;82.90;;;;;;5073133;28;20021;-85
2021/01/23 10:16:35;;;;;;;9.68;6.43;;;4.10;82.90;;;;;;5044404;28;20029;-86
2021/01/23 10:19:03;;;;;;;9.82;6.15;;;4.20;83.00;;;;;;5032046;28;20017;-85
2021/01/23 10:21:29;;;;;;;7.95;5.93;;;4.20;82.90;;;;;;5039908;28;20021;-85
2021/01/23 10:23:55;;;;;;;7.53;5.38;;;4.20;83.00;;;;;;5038074;28;20052;-86
2021/01/23 10:26:21;;;;;;;9.77;6.53;;;4.30;83.10;;;;;;5038880;28;20037;-85
2021/01/23 10:28:47;;;;;;;8.23;6.57;;;4.30;83.00;;;;;;5038629;28;20013;-85
2021/01/23 10:31:21;;;;;;;6.55;5.10;;;4.30;83.00;;;;;;5032246;28;20021;-86
2021/01/23 10:33:47;;;;;;;6.07;4.93;;;4.40;82.90;;;;;;5034653;28;20381;-86
2021/01/23 10:36:12;;;;;;;6.55;5.28;;;4.40;82.60;;;;;;5068386;28;20033;-85
2021/01/23 10:38:38;;;;;;;7.15;5.70;;;4.40;82.60;;;;;;5047519;28;20017;-87
2021/01/23 10:41:04;;;;;;;6.88;5.63;;;4.40;82.80;;;;;;5038904;28;20045;-86
2021/01/23 10:43:29;;;;;;;9.15;6.00;;;4.50;83.10;;;;;;5039160;28;20051;-86
2021/01/23 10:45:55;;;;;;;6.88;4.60;;;4.50;83.00;;;;;;5064523;28;20020;-86
2021/01/23 10:48:20;;;;;;;9.63;5.43;;;4.60;82.70;;;;;;5050626;28;20029;-86
2021/01/23 10:50:46;;;;;;;5.72;4.25;;;4.60;82.70;;;;;;5061249;28;20902;-87
2021/01/23 10:53:11;;;;;;;6.50;4.47;;;4.60;83.00;;;;;;5035530;28;20037;-87
2021/01/23 10:55:37;;;;;;;5.88;4.75;;;4.60;82.50;;;;;;5036716;28;20040;-86
2021/01/23 10:58:02;;;;;;;7.28;4.65;;;4.70;82.50;;;;;;5056741;28;20037;-88
2021/01/23 11:00:28;;;;;;;5.05;4.13;;;4.70;82.40;;;;;;5053348;28;20017;-86
2021/01/23 11:02:54;;;;;;;10.55;6.20;;;4.70;82.40;;;;;;5027576;28;20107;-87
2021/01/23 11:05:19;;;;;;;9.40;5.78;;;4.80;82.30;;;;;;5029787;28;20021;-85
2021/01/23 11:07:45;;;;;;;11.48;6.20;;;4.80;82.20;;;;;;5030808;28;20028;-85
2021/01/23 11:10:11;;;;;;;7.15;4.82;;;4.90;82.20;;;;;;5025199;28;20028;-85
2021/01/23 11:12:37;;;;;;;11.93;7.05;;;4.90;82.00;;;;;;5020434;28;20060;-84
2021/01/23 11:15:04;;;;;;;19.52;9.20;;;4.90;82.00;;;;;;5032685;28;20457;-85
2021/01/23 11:17:29;;;;;;;25.17;9.23;;;4.90;82.00;;;;;;5032301;28;20381;-85
2021/01/23 11:19:55;;;;;;;13.70;7.10;;;4.90;82.00;;;;;;5030209;28;20040;-85
2021/01/23 11:22:20;;;;;;;9.32;5.22;;;4.90;82.00;;;;;;5032505;28;20059;-85
2021/01/23 11:24:46;;;;;;;11.88;6.20;;;4.90;82.10;;;;;;5035050;28;20485;-85
2021/01/23 11:27:11;;;;;;;7.25;4.65;;;4.90;82.00;;;;;;5034982;28;20114;-85
2021/01/23 11:29:38;;;;;;;5.57;4.28;;;5.00;82.00;;;;;;5032840;28;20036;-84
2021/01/23 11:32:04;;;;;;;6.50;4.55;;;4.90;81.90;;;;;;5032190;28;20029;-84
2021/01/23 11:34:30;;;;;;;8.75;5.43;;;4.90;82.00;;;;;;5032687;28;20401;-84
2021/01/23 11:36:55;;;;;;;6.38;4.35;;;4.90;81.80;;;;;;5033227;28;20025;-83
2021/01/23 11:39:21;;;;;;;7.32;4.63;;;5.00;82.00;;;;;;5035864;28;20033;-85
2021/01/23 11:41:47;;;;;;;5.72;4.50;;;5.00;81.80;;;;;;5031352;28;20025;-85
2021/01/23 11:44:12;;;;;;;5.70;4.40;;;5.00;81.80;;;;;;5032137;28;20096;-85
2021/01/23 11:46:38;;;;;;;5.88;4.22;;;5.00;81.80;;;;;;5033943;28;20091;-85
2021/01/23 11:49:04;;;;;;;6.10;4.07;;;5.00;81.70;;;;;;5035215;28;20096;-85
2021/01/23 11:51:29;;;;;;;6.00;4.35;;;5.10;81.80;;;;;;5038106;28;20124;-84
2021/01/23 11:53:55;;;;;;;4.82;3.80;;;5.20;81.80;;;;;;5032383;28;20025;-85
2021/01/23 11:56:20;;;;;;;5.80;4.20;;;5.20;81.50;;;;;;5053949;28;20025;-85
2021/01/23 11:58:47;;;;;;;5.05;3.88;;;5.20;81.50;;;;;;5033457;28;20033;-85
2021/01/23 12:01:12;;;;;;;7.00;4.28;;;5.30;81.40;;;;;;5043525;28;20035;-84
2021/01/23 12:03:38;;;;;;;5.97;4.43;;;5.30;81.30;;;;;;5049955;28;20048;-85
2021/01/23 12:06:03;;;;;;;6.28;4.30;;;5.30;81.20;;;;;;5051766;28;20071;-85
2021/01/23 12:08:29;;;;;;;5.05;3.95;;;5.40;81.20;;;;;;5042846;28;20033;-83
2021/01/23 12:10:55;;;;;;;5.05;3.88;;;5.40;81.40;;;;;;5053833;28;20097;-85
2021/01/23 12:13:20;;;;;;;9.65;4.00;;;5.40;81.10;;;;;;5063646;28;20025;-84
2021/01/23 12:15:46;;;;;;;4.80;3.70;;;5.50;81.10;;;;;;5053740;28;20032;-84
2021/01/23 12:18:11;;;;;;;6.18;3.92;;;5.50;81.10;;;;;;5051597;28;20025;-83
2021/01/23 12:20:37;;;;;;;5.20;4.03;;;5.60;81.10;;;;;;5060008;28;20013;-83
2021/01/23 12:23:03;;;;;;;6.20;4.20;;;5.60;81.00;;;;;;5070612;28;20099;-84
2021/01/23 12:25:29;;;;;;;6.70;3.78;;;5.60;81.10;;;;;;5074487;28;20094;-85
2021/01/23 12:27:54;;;;;;;5.47;4.15;;;5.70;81.00;;;;;;5047825;28;20028;-85
2021/01/23 12:30:20;;;;;;;4.68;3.90;;;5.70;80.90;;;;;;5048533;28;20029;-86
2021/01/23 12:32:47;;;;;;;4.22;3.60;;;5.70;80.70;;;;;;5045423;28;20029;-86
2021/01/23 12:35:13;;;;;;;4.97;3.60;;;5.70;80.50;;;;;;5036094;28;20059;-86
2021/01/23 12:37:41;;;;;;;6.13;3.53;;;5.70;80.60;;;;;;5047013;28;20116;-86
2021/01/23 12:40:08;;;;;;;5.05;3.88;;;5.70;80.40;;;;;;5046973;28;20059;-86
2021/01/23 12:42:33;;;;;;;6.18;3.80;;;5.80;80.60;;;;;;5048362;28;20079;-86
2021/01/23 12:44:59;;;;;;;5.00;3.75;;;5.80;80.60;;;;;;5064068;28;20028;-86
2021/01/23 12:47:26;;;;;;;4.47;3.50;;;5.90;80.70;;;;;;5065556;28;20032;-86
2021/01/23 12:49:52;;;;;;;5.00;3.50;;;5.90;80.50;;;;;;5047551;28;20040;-86
2021/01/23 12:52:18;;;;;;;5.57;3.60;;;5.90;80.40;;;;;;5049812;28;20021;-86
2021/01/23 12:54:44;;;;;;;6.13;3.05;;;5.90;80.40;;;;;;5050000;28;20029;-85
2021/01/23 12:57:10;;;;;;;4.65;3.47;;;5.90;80.40;;;;;;5047717;28;20033;-86